createdAt,value
2022-12-23T00:00:58.911Z,74.90
2022-12-23T00:03:30.379Z,75.28
2022-12-23T00:06:01.256Z,75.30
2022-12-23T00:08:31.792Z,75.67
2022-12-23T00:11:02.322Z,75.27
2022-12-23T00:13:50.498Z,75.81
2022-12-23T00:16:21.460Z,75.48
2022-12-23T00:18:52.019Z,75.41
2022-12-23T00:21:23.582Z,75.23
2022-12-23T00:23:54.388Z,75.06
2022-12-23T00:26:27.229Z,75.22
2022-12-23T00:28:59.497Z,75.29
2022-12-23T00:31:28.507Z,75.05
2022-12-23T00:33:59.111Z,75.22
2022-12-23T00:36:31.323Z,75.20
2022-12-23T00:39:19.830Z,75.25
2022-12-23T00:42:07.980Z,75.29
2022-12-23T00:44:38.462Z,75.44
2022-12-23T00:47:28.995Z,75.34
2022-12-23T00:49:59.451Z,75.19
2022-12-23T00:52:29.915Z,75.12
2022-12-23T00:55:00.539Z,75.10
2022-12-23T00:57:31.000Z,74.82
2022-12-23T01:00:01.477Z,75.12
2022-12-23T01:02:49.877Z,74.93
2022-12-23T01:05:37.558Z,74.87
2022-12-23T01:08:10.539Z,74.73
2022-12-23T01:10:42.015Z,74.67
2022-12-23T01:13:12.497Z,74.74
2022-12-23T01:15:42.946Z,74.55
2022-12-23T01:18:13.377Z,74.43
2022-12-23T01:20:43.859Z,74.41
2022-12-23T01:23:14.320Z,74.46
2022-12-23T01:25:44.768Z,74.45
2022-12-23T01:28:15.233Z,74.09
2022-12-23T01:30:45.710Z,74.06
2022-12-23T01:33:16.145Z,74.29
2022-12-23T01:35:46.678Z,73.98
2022-12-23T01:38:17.147Z,73.95
2022-12-23T01:40:48.318Z,73.95
2022-12-23T01:43:21.503Z,73.89
2022-12-23T01:45:52.479Z,73.84
2022-12-23T01:48:25.586Z,73.63
2022-12-23T01:51:01.290Z,73.70
2022-12-23T01:53:35.692Z,73.44
2022-12-23T01:56:11.373Z,73.54
2022-12-23T01:58:47.508Z,73.29
2022-12-23T02:01:36.048Z,73.39
2022-12-23T02:04:09.922Z,73.15
2022-12-23T02:07:00.694Z,73.19
2022-12-23T02:09:33.327Z,73.15
2022-12-23T02:12:31.073Z,73.11
2022-12-23T02:15:38.921Z,73.12
2022-12-23T02:18:31.751Z,73.13
2022-12-23T02:21:18.173Z,73.02
2022-12-23T02:24:28.723Z,72.99
2022-12-23T02:27:20.090Z,73.04
2022-12-23T02:30:14.486Z,73.01
2022-12-23T02:32:58.959Z,73.12
2022-12-23T02:35:33.150Z,72.86
2022-12-23T02:38:11.561Z,72.98
2022-12-23T02:40:52.026Z,73.04
2022-12-23T02:43:32.479Z,72.89
2022-12-23T02:46:10.318Z,72.57
2022-12-23T02:48:45.410Z,72.53
2022-12-23T02:51:17.204Z,72.50
2022-12-23T02:53:52.141Z,72.61
2022-12-23T02:56:24.899Z,72.44
2022-12-23T02:59:00.059Z,72.32
2022-12-23T03:01:33.551Z,72.63
2022-12-23T03:04:06.061Z,72.39
2022-12-23T03:06:41.035Z,72.30
2022-12-23T03:09:17.296Z,72.31
2022-12-23T03:11:55.817Z,72.25
2022-12-23T03:14:44.277Z,72.23
2022-12-23T03:17:32.274Z,72.13
2022-12-23T03:20:10.830Z,72.21
2022-12-23T03:22:48.112Z,72.10
2022-12-23T03:25:24.092Z,72.07
2022-12-23T03:28:00.744Z,72.04
2022-12-23T03:30:34.135Z,71.90
2022-12-23T03:33:09.068Z,71.98
2022-12-23T03:35:44.933Z,71.90
2022-12-23T03:38:19.557Z,71.71
2022-12-23T03:40:55.560Z,71.94
2022-12-23T03:43:29.835Z,71.70
2022-12-23T03:46:04.672Z,71.75
2022-12-23T03:48:38.756Z,71.70
2022-12-23T03:51:15.774Z,71.59
2022-12-23T03:53:49.771Z,71.63
2022-12-23T03:56:27.148Z,71.72
2022-12-23T03:59:01.888Z,71.84
2022-12-23T04:01:44.020Z,71.71
2022-12-23T04:04:24.311Z,71.64
2022-12-23T04:07:00.532Z,71.50
2022-12-23T04:09:31.477Z,71.48
2022-12-23T04:12:02.085Z,71.51
2022-12-23T04:14:35.177Z,71.48
2022-12-23T04:17:05.649Z,71.43
2022-12-23T04:19:36.129Z,71.51
2022-12-23T04:22:06.667Z,71.44
2022-12-23T04:24:37.218Z,71.45
2022-12-23T04:27:08.088Z,71.47
2022-12-23T04:29:38.766Z,71.50
2022-12-23T04:32:09.530Z,71.43
2022-12-23T04:34:39.939Z,71.57
2022-12-23T04:37:11.173Z,71.45
2022-12-23T04:39:41.624Z,71.50
2022-12-23T04:42:12.135Z,71.49
2022-12-23T04:44:42.557Z,71.41
2022-12-23T04:47:13.085Z,71.49
2022-12-23T04:49:43.718Z,71.60
2022-12-23T04:52:14.377Z,71.49
2022-12-23T04:54:46.442Z,71.58
2022-12-23T04:57:16.086Z,71.53
2022-12-23T04:59:46.754Z,71.59
2022-12-23T05:02:17.299Z,71.69
2022-12-23T05:04:47.892Z,71.71
2022-12-23T05:07:18.348Z,71.73
2022-12-23T05:09:48.761Z,71.70
2022-12-23T05:12:19.921Z,71.87
2022-12-23T05:14:50.374Z,71.81
2022-12-23T05:17:20.980Z,71.87
2022-12-23T05:19:51.410Z,71.90
2022-12-23T05:22:21.821Z,72.12
2022-12-23T05:24:52.270Z,72.09
2022-12-23T05:27:23.108Z,71.90
2022-12-23T05:29:53.558Z,72.03
2022-12-23T05:32:24.004Z,71.97
2022-12-23T05:34:56.444Z,71.99
2022-12-23T05:37:27.162Z,72.11
2022-12-23T05:39:57.609Z,72.01
2022-12-23T05:42:28.106Z,72.17
2022-12-23T05:44:58.553Z,72.38
2022-12-23T05:47:29.025Z,72.13
2022-12-23T05:49:59.461Z,72.41
2022-12-23T05:52:29.983Z,72.15
2022-12-23T05:55:00.470Z,72.28
2022-12-23T05:57:32.035Z,72.56
2022-12-23T06:00:02.629Z,72.52
2022-12-23T06:02:45.121Z,72.59
2022-12-23T06:05:18.031Z,72.80
2022-12-23T06:07:48.477Z,72.58
2022-12-23T06:10:19.309Z,72.92
2022-12-23T06:12:49.875Z,72.87
2022-12-23T06:15:20.532Z,72.93
2022-12-23T06:17:51.020Z,72.87
2022-12-23T06:20:21.620Z,72.90
2022-12-23T06:22:52.164Z,72.87
2022-12-23T06:25:22.996Z,73.21
2022-12-23T06:27:53.436Z,73.12
2022-12-23T06:30:23.954Z,73.14
2022-12-23T06:32:54.401Z,73.16
2022-12-23T06:35:25.118Z,73.10
2022-12-23T06:37:56.369Z,73.32
2022-12-23T06:40:29.232Z,73.59
2022-12-23T06:42:59.807Z,73.78
2022-12-23T06:45:30.690Z,73.65
2022-12-23T06:48:01.127Z,73.70
2022-12-23T06:50:31.521Z,73.77
2022-12-23T06:53:02.205Z,73.82
2022-12-23T06:55:33.754Z,73.53
2022-12-23T06:58:04.208Z,73.40
2022-12-23T07:00:34.877Z,73.31
2022-12-23T07:03:05.475Z,73.57
2022-12-23T07:05:37.820Z,73.27
2022-12-23T07:08:08.851Z,73.51
2022-12-23T07:10:39.393Z,73.32
2022-12-23T07:13:10.132Z,73.27
2022-12-23T07:15:40.876Z,73.25
2022-12-23T07:18:11.367Z,73.28
2022-12-23T07:20:41.781Z,73.31
2022-12-23T07:23:12.235Z,73.15
2022-12-23T07:25:42.686Z,73.36
2022-12-23T07:28:13.131Z,73.44
2022-12-23T07:30:44.185Z,73.43
2022-12-23T07:33:14.596Z,73.49
2022-12-23T07:35:45.078Z,73.44
2022-12-23T07:38:15.508Z,73.50
2022-12-23T07:40:49.261Z,73.67
2022-12-23T07:43:19.851Z,73.75
2022-12-23T07:45:57.318Z,73.90
2022-12-23T07:48:30.647Z,73.74
2022-12-23T07:51:04.614Z,73.87
2022-12-23T07:53:35.100Z,73.87
2022-12-23T07:56:06.309Z,73.68
2022-12-23T07:58:36.988Z,73.87
2022-12-23T08:01:09.005Z,73.91
2022-12-23T08:03:39.805Z,73.91
2022-12-23T08:06:12.792Z,73.97
2022-12-23T08:08:44.646Z,73.91
2022-12-23T08:11:16.778Z,74.12
2022-12-23T08:13:48.326Z,73.83
2022-12-23T08:16:18.810Z,73.90
2022-12-23T08:18:49.336Z,73.76
2022-12-23T08:21:21.039Z,74.00
2022-12-23T08:23:52.327Z,73.60
2022-12-23T08:26:25.173Z,73.59
2022-12-23T08:28:56.018Z,73.66
2022-12-23T08:31:28.802Z,73.85
2022-12-23T08:34:00.241Z,73.73
2022-12-23T08:36:32.484Z,73.62
2022-12-23T08:39:03.188Z,73.79
2022-12-23T08:41:36.918Z,73.68
2022-12-23T08:44:08.289Z,73.55
2022-12-23T08:46:39.807Z,73.51
2022-12-23T08:49:10.856Z,73.51
2022-12-23T08:51:42.755Z,73.77
2022-12-23T08:54:13.796Z,73.50
2022-12-23T08:56:44.701Z,73.43
2022-12-23T08:59:19.535Z,73.38
2022-12-23T09:01:50.907Z,73.65
2022-12-23T09:04:21.502Z,73.80
2022-12-23T09:06:52.272Z,73.48
2022-12-23T09:09:22.896Z,73.53
2022-12-23T09:11:53.379Z,73.52
2022-12-23T09:14:23.961Z,73.66
2022-12-23T09:16:54.590Z,73.41
2022-12-23T09:19:25.121Z,73.66
2022-12-23T09:21:55.613Z,73.47
2022-12-23T09:24:26.079Z,73.65
2022-12-23T09:26:56.620Z,73.41
2022-12-23T09:29:27.173Z,73.44
2022-12-23T09:31:57.814Z,73.35
2022-12-23T09:34:28.468Z,73.20
2022-12-23T09:36:59.041Z,73.28
2022-12-23T09:39:29.474Z,73.14
2022-12-23T09:42:07.510Z,73.34
2022-12-23T09:44:47.510Z,73.27
2022-12-23T09:47:23.140Z,73.43
2022-12-23T09:49:56.489Z,73.71
2022-12-23T09:52:35.194Z,73.41
2022-12-23T09:55:10.341Z,73.98
2022-12-23T09:57:49.437Z,73.90
2022-12-23T10:00:22.709Z,73.73
2022-12-23T10:03:15.436Z,73.75
2022-12-23T10:05:58.213Z,73.62
2022-12-23T10:08:34.380Z,73.83
2022-12-23T10:11:11.081Z,73.77
2022-12-23T10:13:46.350Z,74.30
2022-12-23T10:16:20.363Z,73.89
2022-12-23T10:18:58.818Z,74.20
2022-12-23T10:21:36.308Z,74.15
2022-12-23T10:24:14.229Z,74.50
2022-12-23T10:26:52.975Z,74.59
2022-12-23T10:29:24.900Z,73.95
2022-12-23T10:32:08.106Z,74.10
2022-12-23T10:34:49.001Z,74.40
2022-12-23T10:37:29.425Z,74.23
2022-12-23T10:40:12.695Z,74.15
2022-12-23T10:42:54.188Z,73.99
2022-12-23T10:45:35.774Z,73.92
2022-12-23T10:48:17.252Z,73.94
2022-12-23T10:50:56.823Z,74.44
2022-12-23T10:53:36.977Z,74.08
2022-12-23T10:56:09.444Z,73.94
2022-12-23T10:58:44.463Z,74.12
2022-12-23T11:01:25.986Z,73.80
2022-12-23T11:04:07.572Z,73.88
2022-12-23T11:06:42.965Z,73.78
2022-12-23T11:09:20.385Z,73.35
2022-12-23T11:12:03.052Z,73.32
2022-12-23T11:14:41.651Z,73.41
2022-12-23T11:17:23.827Z,73.39
2022-12-23T11:20:13.516Z,72.83
2022-12-23T11:22:52.193Z,73.13
2022-12-23T11:25:37.278Z,73.10
2022-12-23T11:28:08.726Z,73.04
2022-12-23T11:30:55.426Z,73.06
2022-12-23T11:33:29.993Z,72.82
2022-12-23T11:36:07.427Z,73.03
2022-12-23T11:38:48.308Z,72.70
2022-12-23T11:41:25.008Z,72.58
2022-12-23T11:44:01.058Z,72.48
2022-12-23T11:46:34.251Z,72.93
2022-12-23T11:49:17.085Z,72.49
2022-12-23T11:51:49.786Z,72.60
2022-12-23T11:54:23.356Z,72.61
2022-12-23T11:56:56.014Z,72.34
2022-12-23T11:59:34.001Z,72.75
2022-12-23T12:02:12.737Z,72.54
2022-12-23T12:04:43.904Z,72.73
2022-12-23T12:07:20.477Z,72.46
2022-12-23T12:09:51.513Z,72.57
2022-12-23T12:12:24.095Z,72.57
2022-12-23T12:14:56.469Z,72.66
2022-12-23T12:17:33.968Z,72.57
2022-12-23T12:20:11.866Z,72.36
2022-12-23T12:22:46.882Z,72.74
2022-12-23T12:25:23.735Z,72.34
2022-12-23T12:28:08.354Z,72.54
2022-12-23T12:30:45.273Z,72.42
2022-12-23T12:33:20.375Z,72.71
2022-12-23T12:36:00.251Z,72.74
2022-12-23T12:38:37.156Z,72.57
2022-12-23T12:41:17.443Z,72.82
2022-12-23T12:44:01.700Z,72.80
2022-12-23T12:46:35.206Z,72.52
2022-12-23T12:49:15.662Z,72.45
2022-12-23T12:51:52.523Z,72.37
2022-12-23T12:54:26.744Z,72.37
2022-12-23T12:56:59.018Z,72.34
2022-12-23T12:59:35.803Z,72.34
2022-12-23T13:02:38.108Z,72.53
2022-12-23T13:05:35.021Z,72.36
2022-12-23T13:08:20.201Z,72.39
2022-12-23T13:10:55.113Z,72.56
2022-12-23T13:13:41.203Z,72.34
2022-12-23T13:16:22.525Z,72.37
2022-12-23T13:19:00.835Z,72.17
2022-12-23T13:21:38.534Z,72.37
2022-12-23T13:24:19.906Z,72.18
2022-12-23T13:27:00.554Z,72.38
2022-12-23T13:29:56.128Z,72.50
2022-12-23T13:32:42.061Z,72.34
2022-12-23T13:35:23.923Z,72.59
2022-12-23T13:38:01.492Z,72.52
2022-12-23T13:40:39.988Z,73.18
2022-12-23T13:43:13.161Z,73.44
2022-12-23T13:45:45.772Z,72.94
2022-12-23T13:48:33.624Z,72.74
2022-12-23T13:51:11.488Z,72.87
2022-12-23T13:54:04.561Z,72.71
2022-12-23T13:56:44.201Z,72.66
2022-12-23T13:59:16.668Z,72.62
2022-12-23T14:01:49.907Z,72.50
2022-12-23T14:04:36.976Z,72.59
2022-12-23T14:07:19.359Z,72.30
2022-12-23T14:09:54.806Z,72.62
2022-12-23T14:12:30.727Z,72.33
2022-12-23T14:15:38.130Z,72.41
2022-12-23T14:18:28.266Z,72.36
2022-12-23T14:21:09.214Z,72.68
2022-12-23T14:23:53.281Z,72.88
2022-12-23T14:26:40.511Z,73.08
2022-12-23T14:29:30.077Z,73.25
2022-12-23T14:32:00.915Z,73.31
2022-12-23T14:34:34.248Z,73.60
2022-12-23T14:37:35.460Z,73.46
2022-12-23T14:40:36.779Z,73.42
2022-12-23T14:43:32.040Z,73.47
2022-12-23T14:46:05.893Z,73.43
2022-12-23T14:52:27.711Z,73.16
2022-12-23T14:55:30.178Z,73.48
2022-12-23T14:58:10.134Z,73.39
2022-12-23T15:00:51.314Z,73.44
2022-12-23T15:03:23.705Z,73.32
2022-12-23T15:06:08.148Z,73.42
2022-12-23T15:08:42.305Z,73.42
2022-12-23T15:11:22.742Z,73.29
2022-12-23T15:13:56.102Z,73.53
2022-12-23T15:16:33.553Z,73.50
2022-12-23T15:19:17.480Z,73.61
2022-12-23T15:21:54.455Z,73.58
2022-12-23T15:24:30.974Z,73.78
2022-12-23T15:27:25.866Z,73.87
2022-12-23T15:29:54.241Z,73.78
2022-12-23T15:32:26.585Z,73.88
2022-12-23T15:35:03.030Z,74.07
2022-12-23T15:37:34.914Z,74.08
2022-12-23T15:40:12.615Z,73.73
2022-12-23T15:42:49.785Z,73.58
2022-12-23T15:45:33.863Z,73.70
2022-12-23T15:48:06.155Z,73.66
2022-12-23T15:50:42.477Z,73.53
2022-12-23T15:53:16.958Z,73.79
2022-12-23T15:55:48.530Z,73.98
2022-12-23T15:58:24.538Z,74.36
2022-12-23T16:00:58.044Z,74.07
2022-12-23T16:03:35.307Z,74.00
2022-12-23T16:06:18.788Z,74.04
2022-12-23T16:08:58.746Z,74.26
2022-12-23T16:11:42.382Z,74.03
2022-12-23T16:14:35.306Z,74.53
2022-12-23T16:17:22.639Z,74.50
2022-12-23T16:19:55.024Z,74.47
2022-12-23T16:22:34.376Z,74.56
2022-12-23T16:25:13.454Z,74.90
2022-12-23T16:27:47.935Z,74.80
2022-12-23T16:30:22.695Z,74.76
2022-12-23T16:32:55.950Z,74.29
2022-12-23T16:35:34.655Z,74.86
2022-12-23T16:38:18.202Z,74.72
2022-12-23T16:40:51.309Z,75.00
2022-12-23T16:43:23.069Z,75.13
2022-12-23T16:45:56.129Z,74.93
2022-12-23T16:48:31.596Z,75.05
2022-12-23T16:51:04.876Z,75.13
2022-12-23T16:53:35.378Z,75.15
2022-12-23T16:56:11.204Z,75.42
2022-12-23T16:58:41.890Z,75.22
2022-12-23T17:01:18.175Z,75.17
2022-12-23T17:03:48.806Z,75.17
2022-12-23T17:06:20.440Z,75.28
2022-12-23T17:08:53.230Z,74.89
2022-12-23T17:11:27.752Z,75.21
2022-12-23T17:14:04.089Z,75.42
2022-12-23T17:16:36.377Z,75.34
2022-12-23T17:19:07.320Z,74.99
2022-12-23T17:21:39.663Z,75.17
2022-12-23T17:24:15.243Z,74.98
2022-12-23T17:26:45.693Z,75.14
2022-12-23T17:29:16.508Z,75.02
2022-12-23T17:31:48.733Z,74.73
2022-12-23T17:34:21.566Z,75.35
2022-12-23T17:36:52.894Z,75.35
2022-12-23T17:39:24.093Z,75.18
2022-12-23T17:41:54.523Z,75.19
2022-12-23T17:44:25.011Z,75.47
2022-12-23T17:46:55.528Z,75.12
2022-12-23T17:49:25.974Z,75.21
2022-12-23T17:51:56.603Z,75.09
2022-12-23T17:54:27.579Z,75.03
2022-12-23T17:56:58.415Z,75.30
2022-12-23T17:59:28.919Z,75.01
2022-12-23T18:01:59.417Z,75.37
2022-12-23T18:04:29.971Z,75.37
2022-12-23T18:07:00.600Z,75.47
2022-12-23T18:09:31.066Z,75.56
2022-12-23T18:12:01.868Z,75.56
2022-12-23T18:14:32.509Z,75.41
2022-12-23T18:17:02.979Z,75.06
2022-12-23T18:19:33.931Z,75.35
2022-12-23T18:22:04.495Z,75.37
2022-12-23T18:24:34.952Z,75.06
2022-12-23T18:27:07.498Z,74.80
2022-12-23T18:29:37.929Z,75.12
2022-12-23T18:32:14.192Z,75.10
2022-12-23T18:34:44.724Z,75.02
2022-12-23T18:37:15.195Z,75.04
2022-12-23T18:39:46.073Z,74.79
2022-12-23T18:42:18.847Z,74.79
2022-12-23T18:44:50.165Z,74.78
2022-12-23T18:47:20.620Z,74.95
2022-12-23T18:49:51.095Z,75.02
2022-12-23T18:52:21.684Z,74.94
2022-12-23T18:54:53.487Z,74.53
2022-12-23T18:57:24.201Z,74.55
2022-12-23T18:59:55.310Z,74.84
2022-12-23T19:02:25.868Z,74.68
2022-12-23T19:04:56.343Z,75.05
2022-12-23T19:07:26.844Z,74.87
2022-12-23T19:09:57.767Z,74.76
2022-12-23T19:12:28.240Z,74.80
2022-12-23T19:14:58.661Z,74.57
2022-12-23T19:17:29.768Z,74.71
2022-12-23T19:20:00.425Z,74.86
2022-12-23T19:22:30.875Z,74.69
2022-12-23T19:25:05.913Z,74.78
2022-12-23T19:27:39.450Z,74.41
2022-12-23T19:30:15.627Z,74.49
2022-12-23T19:32:46.438Z,74.61
2022-12-23T19:35:17.405Z,74.67
2022-12-23T19:37:47.911Z,74.44
2022-12-23T19:40:18.448Z,74.57
2022-12-23T19:42:49.317Z,74.81
2022-12-23T19:45:19.949Z,74.84
2022-12-23T19:47:50.409Z,74.46
2022-12-23T19:50:22.378Z,74.36
2022-12-23T19:52:54.821Z,74.24
2022-12-23T19:55:25.387Z,74.55
2022-12-23T19:57:55.859Z,74.24
2022-12-23T20:00:26.496Z,74.27
2022-12-23T20:02:59.162Z,74.41
2022-12-23T20:05:30.224Z,74.11
2022-12-23T20:08:01.066Z,74.11
2022-12-23T20:10:31.564Z,74.19
2022-12-23T20:13:02.043Z,73.92
2022-12-23T20:15:32.569Z,74.00
2022-12-23T20:18:03.283Z,73.89
2022-12-23T20:20:34.198Z,73.91
2022-12-23T20:23:04.892Z,73.77
2022-12-23T20:25:35.380Z,73.93
2022-12-23T20:28:06.107Z,73.68
2022-12-23T20:30:36.576Z,73.82
2022-12-23T20:33:07.168Z,73.72
2022-12-23T20:35:38.101Z,74.05
2022-12-23T20:38:08.946Z,73.78
2022-12-23T20:40:39.478Z,74.00
2022-12-23T20:43:15.087Z,73.63
2022-12-23T20:45:46.369Z,74.02
2022-12-23T20:48:18.218Z,73.97
2022-12-23T20:50:48.862Z,73.44
2022-12-23T20:53:19.277Z,73.78
2022-12-23T20:55:49.766Z,73.58
2022-12-23T20:58:37.963Z,73.45
2022-12-23T21:01:13.340Z,73.88
2022-12-23T21:03:44.258Z,73.75
2022-12-23T21:06:14.682Z,73.70
2022-12-23T21:08:45.320Z,73.61
2022-12-23T21:11:16.210Z,73.74
2022-12-23T21:13:49.802Z,73.83
2022-12-23T21:16:20.648Z,73.62
2022-12-23T21:18:53.294Z,73.64
2022-12-23T21:21:26.519Z,73.84
2022-12-23T21:24:00.060Z,74.00
2022-12-23T21:26:32.024Z,74.13
2022-12-23T21:29:03.993Z,73.61
2022-12-23T21:31:36.794Z,73.91
2022-12-23T21:34:07.932Z,73.94
2022-12-23T21:36:40.171Z,73.64
2022-12-23T21:39:14.608Z,73.81
2022-12-23T21:41:46.036Z,74.23
2022-12-23T21:44:16.673Z,73.84
2022-12-23T21:46:47.288Z,74.13
2022-12-23T21:49:18.067Z,74.20
2022-12-23T21:51:48.686Z,74.61
2022-12-23T21:54:19.215Z,74.23
2022-12-23T21:56:49.652Z,74.20
2022-12-23T21:59:20.168Z,74.50
2022-12-23T22:01:51.240Z,74.32
2022-12-23T22:04:21.839Z,74.57
2022-12-23T22:06:52.389Z,74.54
2022-12-23T22:09:22.831Z,74.61
2022-12-23T22:11:53.266Z,74.78
2022-12-23T22:14:23.693Z,75.02
2022-12-23T22:16:54.247Z,74.78
2022-12-23T22:19:24.750Z,74.71
2022-12-23T22:21:55.246Z,74.89
2022-12-23T22:24:25.772Z,75.15
2022-12-23T22:26:56.195Z,74.83
2022-12-23T22:29:26.636Z,74.86
2022-12-23T22:31:57.205Z,75.06
2022-12-23T22:34:27.735Z,75.10
2022-12-23T22:36:58.153Z,75.41
2022-12-23T22:39:28.922Z,74.76
2022-12-23T22:41:59.344Z,75.09
2022-12-23T22:44:29.792Z,75.03
2022-12-23T22:47:00.233Z,74.96
2022-12-23T22:49:30.768Z,74.91
2022-12-23T22:52:01.302Z,74.86
2022-12-23T22:54:31.717Z,75.10
2022-12-23T22:57:02.196Z,75.02
2022-12-23T22:59:32.714Z,75.23
2022-12-23T23:02:03.239Z,74.95
2022-12-23T23:04:33.805Z,75.14
2022-12-23T23:07:04.471Z,74.98
2022-12-23T23:09:34.995Z,75.05
2022-12-23T23:12:05.739Z,75.13
2022-12-23T23:14:50.200Z,75.30
2022-12-23T23:17:20.859Z,74.48
2022-12-23T23:19:51.661Z,75.01
2022-12-23T23:22:23.838Z,74.85
2022-12-23T23:24:53.031Z,74.90
2022-12-23T23:27:23.514Z,74.94
2022-12-23T23:29:54.001Z,74.77
2022-12-23T23:32:24.542Z,75.03
2022-12-23T23:34:55.141Z,75.15
2022-12-23T23:37:25.574Z,74.85
2022-12-23T23:39:56.030Z,74.86
2022-12-23T23:42:26.435Z,74.90
2022-12-23T23:44:56.907Z,74.82
2022-12-23T23:47:27.366Z,74.83
2022-12-23T23:49:57.819Z,75.10
2022-12-23T23:52:28.840Z,75.35
2022-12-23T23:54:59.300Z,74.99
2022-12-23T23:57:30.128Z,75.01
